Time;durP1;ratioP1;P1;durP2;ratioP2;P2;SDS_P1;SDS_P2;PMS_P1;PMS_P2;Temp;Humidity;BMP_temperature;BMP_pressure;BME280_temperature;BME280_humidity;BME280_pressure;Samples;Min_cycle;Max_cycle;Signal;HPM_P1;HPM_P2
2021/03/10 00:02:13;;;;;;;24.03;11.17;;;6.80;73.00;;;;;;4924863;29;20039;-75
2021/03/10 00:08:53;;;;;;;;;;;;;;;;;;;;;
2021/03/10 00:11:19;;;;;;;23.13;10.47;;;6.90;72.70;;;;;;4922273;29;20055;-74
2021/03/10 00:14:02;;;;;;;24.13;11.47;;;6.90;72.50;;;;;;4964301;28;20121;-75
2021/03/10 00:16:28;;;;;;;24.17;10.80;;;6.90;72.40;;;;;;4971250;28;20042;-78
2021/03/10 00:19:16;;;;;;;28.43;11.87;;;6.90;72.50;;;;;;4955638;28;20103;-74
2021/03/10 00:21:54;;;;;;;28.87;12.87;;;6.90;72.40;;;;;;4955546;29;20058;-74
2021/03/10 00:24:25;;;;;;;31.10;13.07;;;6.90;72.40;;;;;;4973976;28;20049;-74
2021/03/10 00:27:08;;;;;;;;;;;;;;;;;;;;;
2021/03/10 00:29:35;;;;;;;28.13;12.30;;;6.90;71.80;;;;;;4976334;28;20490;-75
2021/03/10 00:32:00;;;;;;;26.73;13.10;;;6.90;71.60;;;;;;4968336;28;20106;-77
2021/03/10 00:34:26;;;;;;;28.50;12.87;;;7.00;71.70;;;;;;4955734;29;20036;-74
2021/03/10 00:36:52;;;;;;;27.33;12.60;;;7.00;71.60;;;;;;4955461;28;20053;-76
2021/03/10 00:39:18;;;;;;;30.60;12.97;;;7.00;71.60;;;;;;4959646;28;20046;-77
2021/03/10 00:41:43;;;;;;;28.80;13.57;;;7.00;71.40;;;;;;4956954;28;20035;-76
2021/03/10 00:44:09;;;;;;;31.43;13.80;;;7.00;71.30;;;;;;4973528;28;20031;-75
2021/03/10 00:46:35;;;;;;;29.80;13.60;;;7.00;71.30;;;;;;4955748;28;20445;-74
2021/03/10 00:49:00;;;;;;;29.80;13.80;;;7.00;71.30;;;;;;4964468;28;20045;-76
2021/03/10 00:51:26;;;;;;;28.43;12.70;;;7.00;71.20;;;;;;4976236;28;20031;-76
2021/03/10 00:53:52;;;;;;;29.00;12.67;;;7.00;71.20;;;;;;4975839;28;20037;-78
2021/03/10 00:56:17;;;;;;;31.07;13.40;;;7.00;71.10;;;;;;4973167;28;20039;-77
2021/03/10 00:58:43;;;;;;;26.70;13.63;;;7.00;71.20;;;;;;4961240;28;20476;-76
2021/03/10 01:01:09;;;;;;;33.20;13.97;;;7.00;70.90;;;;;;4957208;28;20058;-76
2021/03/10 01:03:34;;;;;;;29.17;13.63;;;7.00;70.80;;;;;;4956432;28;20038;-76
2021/03/10 01:06:00;;;;;;;35.13;15.20;;;7.00;70.80;;;;;;4956994;28;20069;-76
2021/03/10 01:08:26;;;;;;;29.23;13.73;;;6.90;70.80;;;;;;4960258;28;20110;-77
2021/03/10 01:10:51;;;;;;;32.30;13.60;;;6.90;70.90;;;;;;4975654;28;20125;-76
2021/03/10 01:13:17;;;;;;;31.13;13.83;;;7.00;70.80;;;;;;4973473;28;20039;-77
2021/03/10 01:15:43;;;;;;;31.57;13.07;;;6.90;70.90;;;;;;4975662;28;20098;-77
2021/03/10 01:18:08;;;;;;;29.97;14.00;;;6.90;71.20;;;;;;4959447;28;20548;-77
2021/03/10 01:20:34;;;;;;;29.63;13.93;;;6.90;71.20;;;;;;4961101;28;20039;-77
2021/03/10 01:23:00;;;;;;;31.53;14.33;;;6.90;71.20;;;;;;4951702;28;20117;-78
2021/03/10 01:25:26;;;;;;;30.63;14.27;;;6.90;71.30;;;;;;4958485;28;20043;-77
2021/03/10 01:27:52;;;;;;;33.60;14.13;;;6.90;71.40;;;;;;4959175;28;20106;-77
2021/03/10 01:30:20;;;;;;;30.27;14.67;;;6.90;71.20;;;;;;4958007;28;20067;-77
2021/03/10 01:32:45;;;;;;;30.87;13.50;;;6.90;71.20;;;;;;4967133;28;20035;-78
2021/03/10 01:35:12;;;;;;;31.77;14.00;;;6.90;71.20;;;;;;4965704;28;20542;-77
2021/03/10 01:37:37;;;;;;;30.97;14.00;;;6.90;71.30;;;;;;4968518;28;20186;-77
2021/03/10 01:40:10;;;;;;;30.40;14.97;;;6.90;71.30;;;;;;4958830;28;20485;-78
2021/03/10 01:42:36;;;;;;;29.70;14.67;;;6.90;71.50;;;;;;4970175;28;20118;-77
2021/03/10 01:45:04;;;;;;;30.93;14.13;;;6.90;71.30;;;;;;4963342;28;20526;-76
2021/03/10 01:47:32;;;;;;;31.03;13.57;;;6.90;71.30;;;;;;4965511;28;20043;-79
2021/03/10 01:49:57;;;;;;;29.50;14.17;;;6.80;71.30;;;;;;4970948;28;20034;-78
2021/03/10 01:52:23;;;;;;;33.23;14.30;;;6.80;71.40;;;;;;4975547;28;20134;-77
2021/03/10 01:54:49;;;;;;;32.83;14.47;;;6.80;71.50;;;;;;4968005;28;20301;-77
2021/03/10 01:57:16;;;;;;;35.03;14.87;;;6.80;71.60;;;;;;4964960;28;20047;-76
2021/03/10 01:59:42;;;;;;;30.60;14.67;;;6.80;71.90;;;;;;4960040;28;20429;-76
2021/03/10 02:02:07;;;;;;;33.40;15.00;;;6.80;71.90;;;;;;4972333;28;20045;-76
2021/03/10 02:04:37;;;;;;;33.00;14.90;;;6.80;72.00;;;;;;4970429;28;20035;-77
2021/03/10 02:07:12;;;;;;;33.73;15.20;;;6.80;72.00;;;;;;4965331;28;20047;-76
2021/03/10 02:10:10;;;;;;;35.13;14.97;;;6.80;72.00;;;;;;4966716;28;20039;-76
2021/03/10 02:13:15;;;;;;;32.70;14.70;;;6.70;72.20;;;;;;4944346;28;20042;-76
2021/03/10 02:15:53;;;;;;;31.80;14.17;;;6.70;72.70;;;;;;4959660;28;20043;-76
2021/03/10 02:18:38;;;;;;;33.93;14.43;;;6.70;72.80;;;;;;4959274;28;20106;-76
2021/03/10 02:21:14;;;;;;;32.23;15.50;;;6.60;73.00;;;;;;4974531;28;20070;-76
2021/03/10 02:24:05;;;;;;;33.47;14.20;;;6.60;73.20;;;;;;4959239;28;20085;-75
2021/03/10 02:26:51;;;;;;;29.17;13.83;;;6.50;73.40;;;;;;4943399;28;20494;-79
2021/03/10 02:29:18;;;;;;;32.23;15.03;;;6.60;73.40;;;;;;4974015;28;20039;-77
2021/03/10 02:31:50;;;;;;;34.70;15.53;;;6.60;73.30;;;;;;4959050;28;20047;-75
2021/03/10 02:34:20;;;;;;;33.40;14.77;;;6.50;73.60;;;;;;4971635;28;20392;-76
2021/03/10 02:36:50;;;;;;;35.17;15.07;;;6.50;73.60;;;;;;4970631;28;20045;-76
2021/03/10 02:39:20;;;;;;;33.50;15.27;;;6.50;73.50;;;;;;4974355;28;20034;-76
2021/03/10 02:41:46;;;;;;;34.00;15.63;;;6.60;73.40;;;;;;4973777;28;20125;-76
2021/03/10 02:44:14;;;;;;;32.63;14.90;;;6.50;73.70;;;;;;4974482;28;20031;-76
2021/03/10 02:46:40;;;;;;;34.73;15.60;;;6.50;74.00;;;;;;4971159;28;20031;-76
2021/03/10 02:49:07;;;;;;;32.50;15.37;;;6.50;74.10;;;;;;4963782;28;20105;-76
2021/03/10 02:51:34;;;;;;;36.47;16.03;;;6.50;73.90;;;;;;4973768;28;20035;-77
2021/03/10 02:54:01;;;;;;;36.30;15.87;;;6.40;74.20;;;;;;4972343;28;20041;-76
2021/03/10 02:56:27;;;;;;;36.23;15.13;;;6.50;74.30;;;;;;4942368;28;20035;-77
2021/03/10 02:58:53;;;;;;;35.23;15.40;;;6.50;74.50;;;;;;4965693;28;20481;-76
2021/03/10 03:01:19;;;;;;;38.60;16.77;;;6.60;74.10;;;;;;4963901;28;20126;-78
2021/03/10 03:03:45;;;;;;;38.83;16.07;;;6.60;73.60;;;;;;4959017;28;20039;-77
2021/03/10 03:06:11;;;;;;;36.27;16.63;;;6.50;74.00;;;;;;4970810;28;20599;-76
2021/03/10 03:08:36;;;;;;;37.00;15.63;;;6.50;74.20;;;;;;4973790;28;20468;-76
2021/03/10 03:11:04;;;;;;;39.03;15.60;;;6.50;74.00;;;;;;4965039;28;20481;-77
2021/03/10 03:13:31;;;;;;;36.63;16.50;;;6.50;74.00;;;;;;4965174;28;20043;-76
2021/03/10 03:15:59;;;;;;;35.23;16.67;;;6.60;74.20;;;;;;4973838;28;20122;-76
2021/03/10 03:18:27;;;;;;;38.57;15.93;;;6.50;74.10;;;;;;4956359;28;20429;-76
2021/03/10 03:20:54;;;;;;;35.77;16.23;;;6.50;74.00;;;;;;4965338;28;20039;-76
2021/03/10 03:23:21;;;;;;;37.40;15.43;;;6.50;74.00;;;;;;4963499;28;20039;-76
2021/03/10 03:25:49;;;;;;;34.37;15.83;;;6.50;74.30;;;;;;4958039;28;20036;-76
2021/03/10 03:28:20;;;;;;;38.77;15.77;;;6.50;74.50;;;;;;4971023;28;20077;-76
2021/03/10 03:30:48;;;;;;;36.78;16.27;;;6.50;74.50;;;;;;4973698;28;20045;-76
2021/03/10 03:33:19;;;;;;;35.03;15.60;;;6.40;74.60;;;;;;4972869;28;20035;-76
2021/03/10 03:35:50;;;;;;;39.05;16.13;;;6.40;74.60;;;;;;4972437;28;20034;-76
2021/03/10 03:38:16;;;;;;;35.83;15.60;;;6.50;74.60;;;;;;4974048;28;20042;-75
2021/03/10 03:40:43;;;;;;;37.43;16.43;;;6.40;74.50;;;;;;4973098;28;20049;-76
2021/03/10 03:43:12;;;;;;;35.37;16.17;;;6.40;74.70;;;;;;4972846;28;20031;-76
2021/03/10 03:45:37;;;;;;;33.87;15.63;;;6.50;74.60;;;;;;4973760;28;20094;-76
2021/03/10 03:48:04;;;;;;;34.13;16.17;;;6.50;74.50;;;;;;4973236;28;20432;-76
2021/03/10 03:50:31;;;;;;;38.03;16.70;;;6.40;74.70;;;;;;4973139;28;20126;-76
2021/03/10 03:52:56;;;;;;;36.63;15.90;;;6.40;74.80;;;;;;4976205;28;20093;-76
2021/03/10 03:55:23;;;;;;;35.20;16.33;;;6.40;75.00;;;;;;4976656;28;20034;-76
2021/03/10 03:57:49;;;;;;;35.40;16.13;;;6.40;75.10;;;;;;4975973;28;20043;-77
2021/03/10 04:00:21;;;;;;;36.40;16.37;;;6.30;75.50;;;;;;4977297;28;20476;-76
2021/03/10 04:02:47;;;;;;;35.43;14.93;;;6.40;75.60;;;;;;4975906;28;20125;-76
2021/03/10 04:05:14;;;;;;;35.57;15.60;;;6.40;75.50;;;;;;4976606;28;20073;-76
2021/03/10 04:07:50;;;;;;;35.27;16.07;;;6.40;75.30;;;;;;4975445;28;20170;-76
2021/03/10 04:10:17;;;;;;;35.07;15.80;;;6.50;75.30;;;;;;4976275;28;20035;-76
2021/03/10 04:12:44;;;;;;;35.87;17.17;;;6.40;75.40;;;;;;4977014;28;20071;-76
2021/03/10 04:15:12;;;;;;;38.50;16.83;;;6.40;75.30;;;;;;4977233;28;20042;-76
2021/03/10 04:17:38;;;;;;;34.80;15.47;;;6.30;75.40;;;;;;4976787;28;20484;-77
2021/03/10 04:20:16;;;;;;;39.17;16.37;;;6.30;75.60;;;;;;4976219;28;20038;-76
2021/03/10 04:22:42;;;;;;;37.03;16.67;;;6.40;75.60;;;;;;4975596;28;20547;-77
2021/03/10 04:25:10;;;;;;;35.47;16.07;;;6.40;75.70;;;;;;4977279;28;20034;-77
2021/03/10 04:27:36;;;;;;;40.23;17.10;;;6.40;75.80;;;;;;4977452;28;20069;-81
2021/03/10 04:30:04;;;;;;;39.53;17.10;;;6.40;75.70;;;;;;4975677;28;20042;-76
2021/03/10 04:32:30;;;;;;;38.07;17.23;;;6.40;75.80;;;;;;4976561;28;20116;-76
2021/03/10 04:34:56;;;;;;;38.17;17.07;;;6.40;75.60;;;;;;4976040;28;20500;-77
2021/03/10 04:37:22;;;;;;;37.43;16.57;;;6.30;75.80;;;;;;4976115;28;20078;-77
2021/03/10 04:39:47;;;;;;;37.70;16.00;;;6.30;75.80;;;;;;4976055;28;20039;-77
2021/03/10 04:42:13;;;;;;;35.37;15.80;;;6.40;75.80;;;;;;4977306;28;20035;-77
2021/03/10 04:44:39;;;;;;;40.00;16.53;;;6.30;75.70;;;;;;4976775;28;20133;-77
2021/03/10 04:47:04;;;;;;;32.87;16.03;;;6.40;75.90;;;;;;4977508;28;20453;-77
2021/03/10 04:49:30;;;;;;;33.83;15.53;;;6.30;76.00;;;;;;4977349;28;20119;-77
2021/03/10 04:51:56;;;;;;;36.43;15.77;;;6.30;76.30;;;;;;4975903;28;20448;-76
2021/03/10 04:54:21;;;;;;;36.53;15.50;;;6.30;76.40;;;;;;4975939;28;20038;-76
2021/03/10 04:56:47;;;;;;;38.00;16.20;;;6.20;76.60;;;;;;4975842;28;20403;-76
2021/03/10 04:59:13;;;;;;;39.43;16.90;;;6.20;76.60;;;;;;4976982;28;20042;-76
2021/03/10 05:01:38;;;;;;;32.13;15.60;;;6.20;76.40;;;;;;4975558;28;20039;-77
2021/03/10 05:04:04;;;;;;;38.47;16.53;;;6.30;76.50;;;;;;4975217;28;20035;-77
2021/03/10 05:06:30;;;;;;;38.83;16.27;;;6.20;76.30;;;;;;4975227;28;20050;-76
2021/03/10 05:08:56;;;;;;;37.40;16.23;;;6.20;76.50;;;;;;4974781;28;20039;-76
2021/03/10 05:11:21;;;;;;;37.00;16.70;;;6.20;76.60;;;;;;4976775;28;20039;-76
2021/03/10 05:13:48;;;;;;;38.63;17.00;;;6.20;76.70;;;;;;4974699;28;20062;-76
2021/03/10 05:16:14;;;;;;;38.23;16.83;;;6.20;76.60;;;;;;4975230;28;20088;-76
2021/03/10 05:18:39;;;;;;;37.87;17.30;;;6.20;76.90;;;;;;4974701;28;20141;-78
2021/03/10 05:21:06;;;;;;;40.27;16.87;;;6.20;76.90;;;;;;4975489;28;20543;-77
2021/03/10 05:23:31;;;;;;;38.97;17.23;;;6.20;77.00;;;;;;4976517;28;20030;-77
2021/03/10 05:25:57;;;;;;;37.37;16.50;;;6.10;77.20;;;;;;4974895;28;20138;-76
2021/03/10 05:28:22;;;;;;;38.90;16.77;;;6.10;77.30;;;;;;4974589;28;20373;-76
2021/03/10 05:30:48;;;;;;;35.20;16.57;;;6.10;77.30;;;;;;4975502;28;20031;-77
2021/03/10 05:33:13;;;;;;;39.03;17.13;;;6.10;77.40;;;;;;4975979;28;20396;-77
2021/03/10 05:35:39;;;;;;;36.13;15.67;;;6.10;77.40;;;;;;4958353;28;20461;-77
2021/03/10 05:38:05;;;;;;;38.00;16.97;;;6.10;77.40;;;;;;4956054;29;20126;-78
2021/03/10 05:40:32;;;;;;;35.13;16.73;;;6.10;77.50;;;;;;4955522;29;20031;-77
2021/03/10 05:42:58;;;;;;;42.00;17.70;;;6.10;77.50;;;;;;4954645;28;20091;-77
2021/03/10 05:45:24;;;;;;;37.53;16.93;;;6.10;77.40;;;;;;4955268;29;20035;-77
2021/03/10 05:47:52;;;;;;;38.63;16.83;;;6.10;77.40;;;;;;4955747;29;20054;-77
2021/03/10 05:50:18;;;;;;;37.90;17.03;;;6.20;77.50;;;;;;4962317;28;20473;-76
2021/03/10 05:52:47;;;;;;;35.37;15.63;;;6.20;77.50;;;;;;4954444;28;20039;-77
2021/03/10 05:55:20;;;;;;;37.13;16.77;;;6.20;77.50;;;;;;4956360;28;20170;-76
2021/03/10 05:57:46;;;;;;;33.53;16.13;;;6.10;77.50;;;;;;4969861;28;20054;-76
2021/03/10 06:00:13;;;;;;;41.57;17.23;;;6.20;77.50;;;;;;4975593;28;20364;-76
2021/03/10 06:02:39;;;;;;;38.13;17.03;;;6.10;77.60;;;;;;4974196;28;20396;-76
2021/03/10 06:05:36;;;;;;;41.63;18.00;;;6.10;77.60;;;;;;4973257;28;20035;-76
2021/03/10 06:08:09;;;;;;;40.73;17.13;;;6.10;77.90;;;;;;4972598;28;20147;-76
2021/03/10 06:17:31;;;;;;;41.50;17.50;;;6.20;77.90;;;;;;4965774;28;20039;-77
2021/03/10 06:19:59;;;;;;;37.72;17.25;;;6.20;77.80;;;;;;4960844;28;20464;-76
2021/03/10 06:22:34;;;;;;;42.07;18.17;;;6.20;77.90;;;;;;4974078;28;20034;-77
2021/03/10 06:25:03;;;;;;;41.40;18.13;;;6.20;77.90;;;;;;4973498;28;20050;-76
2021/03/10 06:27:52;;;;;;;44.50;19.23;;;6.20;77.70;;;;;;4974936;28;20584;-77
2021/03/10 06:30:18;;;;;;;39.33;18.30;;;6.20;77.40;;;;;;4973562;28;20396;-77
2021/03/10 06:32:47;;;;;;;44.53;19.37;;;6.20;77.30;;;;;;4973172;28;20031;-77
2021/03/10 06:35:35;;;;;;;41.87;18.93;;;6.20;77.40;;;;;;4973638;28;20042;-77
2021/03/10 06:38:31;;;;;;;45.63;19.47;;;6.20;77.40;;;;;;4974328;28;20050;-77
2021/03/10 06:41:55;;;;;;;;;;;;;;;;;;;;;
2021/03/10 06:44:57;;;;;;;;;;;;;;;;;;;;;
2021/03/10 06:48:15;;;;;;;46.80;19.80;;;6.20;77.00;;;;;;4975155;28;20031;-77
2021/03/10 06:51:21;;;;;;;43.80;19.20;;;6.30;77.10;;;;;;4971413;28;20492;-77
2021/03/10 06:54:35;;;;;;;51.33;20.07;;;6.30;76.90;;;;;;4972211;28;20035;-78
2021/03/10 06:57:39;;;;;;;;;;;;;;;;;;;;;
2021/03/10 07:00:41;;;;;;;48.17;18.53;;;6.30;76.80;;;;;;4971650;28;20195;-76
2021/03/10 07:03:45;;;;;;;44.80;19.23;;;6.30;76.80;;;;;;4967277;28;20046;-76
2021/03/10 07:06:16;;;;;;;42.97;18.30;;;6.30;76.70;;;;;;4973016;28;20117;-78
2021/03/10 07:09:14;;;;;;;46.20;19.13;;;6.30;76.50;;;;;;4970529;28;20047;-75
2021/03/10 07:11:51;;;;;;;41.27;18.47;;;6.30;76.40;;;;;;4972773;28;20124;-76
2021/03/10 07:14:37;;;;;;;40.33;18.73;;;6.40;76.40;;;;;;4972930;28;20038;-75
2021/03/10 07:17:23;;;;;;;41.87;19.40;;;6.40;76.40;;;;;;4972084;28;20129;-75
2021/03/10 07:19:56;;;;;;;44.27;19.97;;;6.40;76.40;;;;;;4973350;28;20066;-76
2021/03/10 07:22:36;;;;;;;56.07;21.10;;;6.40;76.40;;;;;;4972693;28;20039;-76
2021/03/10 07:25:13;;;;;;;44.67;18.73;;;6.40;76.20;;;;;;4972138;28;20042;-76
2021/03/10 07:27:55;;;;;;;46.60;20.53;;;6.50;76.10;;;;;;4976230;28;20190;-76
2021/03/10 07:30:49;;;;;;;42.50;20.00;;;6.50;75.90;;;;;;4976822;28;20073;-76
2021/03/10 07:33:20;;;;;;;48.00;19.90;;;6.50;76.10;;;;;;4976535;28;20142;-76
2021/03/10 07:35:47;;;;;;;45.97;19.83;;;6.50;75.90;;;;;;4976791;28;20042;-76
2021/03/10 07:38:14;;;;;;;48.03;21.00;;;6.60;75.70;;;;;;4957092;28;20044;-77
2021/03/10 07:40:54;;;;;;;44.77;19.13;;;6.60;75.70;;;;;;4957984;28;20059;-77
2021/03/10 07:43:48;;;;;;;46.07;19.00;;;6.70;75.60;;;;;;4955729;29;20043;-77
2021/03/10 07:46:34;;;;;;;41.20;17.00;;;6.70;75.60;;;;;;4954514;29;20039;-76
2021/03/10 07:49:01;;;;;;;43.70;18.60;;;6.80;75.20;;;;;;4955957;29;20047;-76
2021/03/10 07:51:38;;;;;;;43.90;19.27;;;6.80;75.20;;;;;;4956749;28;20539;-77
2021/03/10 07:54:16;;;;;;;46.47;20.23;;;6.70;75.10;;;;;;4956369;29;20032;-76
2021/03/10 07:56:45;;;;;;;42.33;19.13;;;6.80;75.80;;;;;;4957036;29;20038;-77
2021/03/10 07:59:27;;;;;;;42.10;19.23;;;6.80;75.00;;;;;;4954917;29;20043;-77
2021/03/10 08:02:09;;;;;;;;;;;;;;;;;;;;;
2021/03/10 08:04:45;;;;;;;44.92;18.83;;;7.00;75.10;;;;;;4955989;29;20354;-77
2021/03/10 08:07:31;;;;;;;46.93;19.70;;;7.00;74.50;;;;;;4954243;28;20031;-77
2021/03/10 08:10:05;;;;;;;42.27;18.83;;;7.00;74.70;;;;;;4954638;29;20032;-77
2021/03/10 08:12:42;;;;;;;44.93;20.33;;;7.00;74.60;;;;;;4956541;29;20071;-77
2021/03/10 08:15:29;;;;;;;47.70;19.67;;;7.00;74.40;;;;;;4956052;29;20106;-77
2021/03/10 08:18:12;;;;;;;46.80;20.37;;;7.10;74.60;;;;;;4954871;29;20086;-77
2021/03/10 08:20:43;;;;;;;45.17;20.00;;;7.10;74.40;;;;;;4956431;28;20046;-77
2021/03/10 08:23:09;;;;;;;42.03;19.15;;;7.20;74.90;;;;;;4956180;28;20037;-76
2021/03/10 08:25:35;;;;;;;46.00;19.40;;;7.20;74.00;;;;;;4956490;29;20115;-77
2021/03/10 08:34:50;;;;;;;43.90;19.70;;;7.50;73.50;;;;;;4950582;29;20537;-77
2021/03/10 08:37:19;;;;;;;40.30;18.80;;;7.50;73.20;;;;;;4945084;28;20039;-77
2021/03/10 08:43:08;;;;;;;40.53;18.83;;;7.60;73.10;;;;;;4952999;29;20065;-77
2021/03/10 08:46:08;;;;;;;43.70;20.17;;;7.60;72.50;;;;;;4952443;29;20192;-78
2021/03/10 08:48:44;;;;;;;40.10;19.67;;;7.60;73.20;;;;;;4951211;29;20031;-77
2021/03/10 08:51:39;;;;;;;47.63;20.17;;;7.70;73.00;;;;;;4954656;29;20042;-77
2021/03/10 08:54:28;;;;;;;47.93;19.70;;;7.70;73.10;;;;;;4955117;29;20035;-76
2021/03/10 08:56:59;;;;;;;46.93;20.17;;;7.70;73.30;;;;;;4953810;29;20405;-77
2021/03/10 08:59:54;;;;;;;42.50;19.92;;;7.80;72.20;;;;;;4954128;29;20050;-77
2021/03/10 09:02:37;;;;;;;45.23;19.77;;;7.90;72.10;;;;;;4953442;29;20031;-77
2021/03/10 09:05:19;;;;;;;;;;;;;;;;;;;;;
2021/03/10 09:08:07;;;;;;;;;;;;;;;;;;;;;
2021/03/10 09:10:48;;;;;;;42.43;19.33;;;8.10;70.80;;;;;;4944965;29;20049;-74
2021/03/10 09:13:25;;;;;;;43.53;18.57;;;8.20;71.00;;;;;;4951275;29;20050;-74
2021/03/10 09:15:51;;;;;;;45.37;19.43;;;8.30;70.50;;;;;;4951484;29;20047;-76
2021/03/10 09:18:41;;;;;;;46.97;19.90;;;8.40;70.20;;;;;;4955172;29;20047;-75
2021/03/10 09:21:21;;;;;;;42.87;19.47;;;8.50;69.60;;;;;;4955924;28;20042;-76
2021/03/10 09:24:28;;;;;;;42.05;19.60;;;8.50;69.40;;;;;;4952809;28;20035;-75
2021/03/10 09:26:56;;;;;;;41.00;18.47;;;8.60;68.60;;;;;;4951351;29;20067;-79
2021/03/10 09:29:40;;;;;;;42.13;19.57;;;8.70;69.40;;;;;;4954929;29;20129;-76
2021/03/10 09:32:26;;;;;;;44.20;20.67;;;8.70;69.00;;;;;;4954402;29;20039;-76
2021/03/10 09:34:57;;;;;;;39.50;18.57;;;8.80;68.50;;;;;;4955014;29;20480;-74
2021/03/10 09:37:25;;;;;;;44.50;19.67;;;8.80;68.50;;;;;;4954501;29;20031;-75
2021/03/10 09:40:10;;;;;;;;;;;;;;;;;;;;;
2021/03/10 09:42:48;;;;;;;41.47;17.88;;;8.90;68.40;;;;;;4956080;28;20035;-75
2021/03/10 09:45:37;;;;;;;44.10;19.75;;;9.00;67.70;;;;;;4942147;28;20043;-76
2021/03/10 09:48:12;;;;;;;41.90;18.67;;;9.00;67.60;;;;;;4953975;28;20077;-75
2021/03/10 09:50:53;;;;;;;;;;;;;;;;;;;;;
2021/03/10 09:53:33;;;;;;;47.93;19.63;;;9.10;68.40;;;;;;4955294;29;20037;-75
2021/03/10 09:56:30;;;;;;;37.70;18.08;;;9.10;67.40;;;;;;4955002;28;20074;-77
2021/03/10 09:59:06;;;;;;;39.67;18.65;;;9.20;67.10;;;;;;4938603;29;20449;-75
2021/03/10 10:01:45;;;;;;;42.05;18.48;;;9.30;67.50;;;;;;4955746;28;20035;-74
2021/03/10 10:04:19;;;;;;;39.10;18.52;;;9.40;66.30;;;;;;4954532;29;20042;-76
2021/03/10 10:06:56;;;;;;;40.03;19.42;;;9.50;66.10;;;;;;4954508;29;20455;-73
2021/03/10 10:09:31;;;;;;;43.22;19.63;;;9.40;65.60;;;;;;4955150;28;20047;-76
2021/03/10 10:11:58;;;;;;;40.10;18.63;;;9.30;65.90;;;;;;4944988;29;20050;-76
2021/03/10 10:14:33;;;;;;;37.15;18.58;;;9.30;66.10;;;;;;4953782;29;20039;-75
2021/03/10 10:20:29;;;;;;;40.83;18.80;;;9.50;65.70;;;;;;4953959;28;20058;-77
2021/03/10 10:22:58;;;;;;;41.42;19.23;;;9.60;65.70;;;;;;4934626;29;20119;-82
2021/03/10 10:25:24;;;;;;;45.92;20.02;;;9.70;65.50;;;;;;4934884;29;20082;-75
2021/03/10 10:27:53;;;;;;;42.75;19.40;;;9.70;65.00;;;;;;4951653;29;20051;-74
2021/03/10 10:30:42;;;;;;;40.67;20.60;;;9.80;65.60;;;;;;4953189;28;20050;-75
2021/03/10 10:33:23;;;;;;;;;;;;;;;;;;;;;
2021/03/10 10:35:55;;;;;;;42.88;19.63;;;10.00;64.50;;;;;;4955067;29;20043;-75
2021/03/10 10:38:26;;;;;;;;;;;10.00;64.70;;;;;;4955142;28;20047;-75
2021/03/10 10:40:52;;;;;;;40.13;18.85;;;10.10;64.20;;;;;;4953793;29;19907;-74
2021/03/10 10:43:27;;;;;;;42.65;19.80;;;10.10;63.90;;;;;;4953114;29;20090;-74
2021/03/10 10:45:53;;;;;;;39.75;18.50;;;10.10;63.20;;;;;;4953675;29;20045;-74
2021/03/10 10:48:22;;;;;;;41.60;19.13;;;10.20;63.80;;;;;;4954028;28;20038;-74
2021/03/10 10:51:19;;;;;;;37.25;18.25;;;10.20;63.30;;;;;;4953442;28;20105;-74
2021/03/10 10:53:49;;;;;;;39.75;18.88;;;10.20;63.00;;;;;;4953162;28;20039;-74
2021/03/10 10:59:06;;;;;;;36.60;17.70;;;10.30;62.30;;;;;;4953910;29;20040;-75
2021/03/10 11:01:43;;;;;;;32.95;16.35;;;10.30;62.60;;;;;;4954439;28;20063;-76
2021/03/10 11:04:18;;;;;;;34.78;15.88;;;10.30;61.30;;;;;;4950733;29;20488;-75
2021/03/10 11:06:48;;;;;;;31.65;16.25;;;10.30;60.60;;;;;;4950403;29;20035;-76
2021/03/10 11:09:16;;;;;;;33.63;15.77;;;10.40;61.90;;;;;;4949448;29;20058;-75
2021/03/10 11:11:48;;;;;;;32.33;16.13;;;10.40;60.00;;;;;;4952272;28;20044;-75
2021/03/10 11:14:13;;;;;;;35.63;16.80;;;10.40;60.90;;;;;;4953463;28;20032;-75
2021/03/10 11:16:42;;;;;;;33.72;17.05;;;10.60;61.60;;;;;;4954386;28;20090;-75
2021/03/10 11:19:13;;;;;;;31.92;16.30;;;10.60;60.50;;;;;;4953361;28;20043;-75
2021/03/10 11:21:39;;;;;;;33.22;16.15;;;10.60;60.20;;;;;;4938302;29;20183;-74
2021/03/10 11:24:07;;;;;;;35.70;16.38;;;10.60;59.90;;;;;;4968388;28;20480;-75
2021/03/10 11:26:33;;;;;;;37.45;16.50;;;10.60;60.10;;;;;;4953375;28;20122;-76
2021/03/10 11:28:59;;;;;;;31.15;15.55;;;10.70;59.20;;;;;;4954002;29;20489;-76
2021/03/10 11:31:24;;;;;;;31.67;16.00;;;10.80;58.90;;;;;;4953323;29;20122;-75
2021/03/10 11:33:50;;;;;;;32.72;15.85;;;10.80;59.00;;;;;;4953429;29;20035;-75
2021/03/10 11:36:16;;;;;;;31.80;15.13;;;10.80;58.10;;;;;;4953647;29;20031;-75
2021/03/10 11:38:41;;;;;;;26.73;13.38;;;10.70;57.50;;;;;;4953948;29;20035;-75
2021/03/10 11:41:07;;;;;;;31.52;14.02;;;10.70;56.00;;;;;;4952244;28;20051;-74
2021/03/10 11:43:33;;;;;;;25.25;11.82;;;10.80;57.00;;;;;;4953167;29;20095;-74
2021/03/10 11:45:58;;;;;;;24.60;12.38;;;10.80;55.30;;;;;;4953655;28;20035;-76
2021/03/10 11:48:24;;;;;;;22.73;11.52;;;10.80;55.10;;;;;;4954350;28;20043;-74
2021/03/10 11:50:50;;;;;;;20.92;10.95;;;10.80;54.10;;;;;;4952950;29;20046;-74
2021/03/10 11:53:16;;;;;;;21.90;10.82;;;10.70;53.20;;;;;;4952213;29;20066;-75
2021/03/10 11:55:41;;;;;;;24.00;11.75;;;10.80;53.40;;;;;;4953244;29;20031;-75
2021/03/10 11:58:07;;;;;;;25.20;13.55;;;10.90;55.60;;;;;;4952400;29;20503;-74
2021/03/10 12:00:33;;;;;;;25.10;12.93;;;11.10;55.30;;;;;;4952870;28;20036;-74
2021/03/10 12:03:00;;;;;;;23.40;11.77;;;11.20;54.60;;;;;;4952391;29;20435;-74
2021/03/10 12:05:26;;;;;;;22.60;11.07;;;11.20;54.20;;;;;;4954171;28;20038;-75
2021/03/10 12:07:51;;;;;;;29.92;13.02;;;11.20;54.20;;;;;;4953839;29;20114;-75
2021/03/10 12:10:18;;;;;;;23.48;11.95;;;11.20;53.90;;;;;;4952258;29;20255;-75
2021/03/10 12:12:44;;;;;;;19.83;10.85;;;11.30;53.80;;;;;;4954746;28;20031;-75
2021/03/10 12:15:10;;;;;;;15.38;7.20;;;11.30;52.80;;;;;;4956653;28;20042;-75
2021/03/10 12:17:36;;;;;;;17.20;8.88;;;11.30;49.60;;;;;;4955678;29;20126;-74
2021/03/10 12:20:04;;;;;;;17.50;8.40;;;11.20;50.20;;;;;;4952263;28;20086;-74
2021/03/10 12:22:30;;;;;;;12.80;7.03;;;11.20;50.70;;;;;;4950938;29;20122;-74
2021/03/10 12:24:56;;;;;;;19.35;10.02;;;11.30;49.50;;;;;;4950104;29;20118;-80
2021/03/10 12:27:24;;;;;;;19.42;9.82;;;11.30;50.00;;;;;;4956174;29;20142;-74
2021/03/10 12:29:51;;;;;;;19.20;10.07;;;11.30;50.80;;;;;;4957699;29;20066;-74
2021/03/10 12:32:17;;;;;;;17.10;8.32;;;11.40;50.60;;;;;;4955473;29;20047;-74
2021/03/10 12:34:42;;;;;;;20.92;9.68;;;11.40;50.10;;;;;;4957155;29;20095;-74
2021/03/10 12:37:08;;;;;;;17.70;9.70;;;11.30;50.10;;;;;;4956756;29;20058;-75
2021/03/10 12:39:39;;;;;;;21.60;10.18;;;11.30;50.50;;;;;;4955736;28;20047;-75
2021/03/10 12:42:47;;;;;;;18.55;10.02;;;11.40;51.00;;;;;;4955472;28;20484;-75
2021/03/10 12:46:19;;;;;;;;;;;;;;;;;;;;;
2021/03/10 12:56:38;;;;;;;11.45;5.43;;;11.70;47.00;;;;;;4916219;29;20433;-74
2021/03/10 13:02:48;;;;;;;12.40;7.25;;;11.70;47.00;;;;;;4883508;29;20514;-74
2021/03/10 13:13:14;;;;;;;9.88;4.97;;;11.90;45.90;;;;;;4822104;29;20049;-74
2021/03/10 13:16:25;;;;;;;12.93;6.43;;;12.00;44.50;;;;;;4736277;30;20469;-74
2021/03/10 13:20:05;;;;;;;;;;;;;;;;;;;;;
2021/03/10 13:22:49;;;;;;;15.02;7.25;;;11.90;46.20;;;;;;4748505;30;20812;-72
2021/03/10 13:26:15;;;;;;;;;;;;;;;;;;;;;
2021/03/10 13:33:27;;;;;;;13.85;6.95;;;12.40;46.10;;;;;;4726968;30;20119;-75
2021/03/10 13:43:49;;;;;;;9.60;5.45;;;12.70;45.50;;;;;;4611566;31;20571;-75
2021/03/10 13:47:21;;;;;;;;;;;;;;;;;;;;;
2021/03/10 13:50:51;;;;;;;;;;;;;;;;;;;;;
2021/03/10 13:54:11;;;;;;;;;;;;;;;;;;;;;
2021/03/10 13:57:06;;;;;;;12.52;6.40;;;12.50;44.70;;;;;;4697407;30;20068;-76
2021/03/10 14:00:24;;;;;;;11.57;6.20;;;12.40;45.10;;;;;;4739144;30;20055;-74
2021/03/10 14:03:31;;;;;;;16.05;7.32;;;12.20;44.90;;;;;;4748484;30;20101;-75
2021/03/10 14:05:57;;;;;;;16.30;7.82;;;11.90;46.20;;;;;;4780482;30;20100;-78
2021/03/10 14:08:23;;;;;;;12.55;6.95;;;11.80;46.70;;;;;;4786524;29;20047;-74
2021/03/10 14:10:48;;;;;;;13.38;6.60;;;11.70;47.30;;;;;;4840060;29;20560;-75
2021/03/10 14:13:14;;;;;;;13.05;6.10;;;11.60;47.20;;;;;;4861452;29;20158;-75
2021/03/10 14:15:40;;;;;;;12.05;6.45;;;11.50;47.10;;;;;;4874548;29;20036;-75
2021/03/10 14:18:05;;;;;;;17.10;6.97;;;11.50;47.40;;;;;;4858371;29;20133;-75
2021/03/10 14:20:31;;;;;;;12.85;5.97;;;11.40;46.60;;;;;;4935861;28;20031;-76
2021/03/10 14:22:57;;;;;;;11.25;6.00;;;11.50;46.30;;;;;;4954072;28;20050;-79
2021/03/10 14:25:23;;;;;;;11.82;5.55;;;11.50;46.30;;;;;;4954328;28;20038;-75
2021/03/10 14:27:51;;;;;;;10.32;5.53;;;11.40;46.50;;;;;;4952674;28;20035;-76
2021/03/10 14:30:17;;;;;;;12.18;6.47;;;11.40;47.30;;;;;;4949895;29;20036;-75